createdAt,value
2022-11-28T00:01:29.824Z,6.00
2022-11-28T00:03:56.558Z,6.00
2022-11-28T00:06:24.026Z,5.90
2022-11-28T00:08:53.285Z,5.90
2022-11-28T00:11:19.991Z,6.00
2022-11-28T00:13:47.004Z,5.90
2022-11-28T00:16:16.371Z,5.90
2022-11-28T00:18:43.349Z,5.90
2022-11-28T00:21:12.677Z,5.90
2022-11-28T00:23:39.450Z,5.90
2022-11-28T00:26:11.741Z,6.00
2022-11-28T00:28:40.141Z,5.90
2022-11-28T00:31:11.646Z,5.90
2022-11-28T00:33:38.304Z,6.00
2022-11-28T00:36:07.926Z,5.90
2022-11-28T00:38:37.132Z,6.00
2022-11-28T00:41:18.918Z,6.00
2022-11-28T00:43:47.098Z,5.90
2022-11-28T00:46:14.917Z,5.90
2022-11-28T00:48:44.740Z,5.90
2022-11-28T00:51:17.474Z,5.90
2022-11-28T00:53:47.981Z,5.90
2022-11-28T00:56:17.324Z,5.90
2022-11-28T00:58:44.148Z,5.90
2022-11-28T01:01:13.493Z,5.90
2022-11-28T01:03:41.217Z,5.90
2022-11-28T01:06:08.998Z,5.90
2022-11-28T01:08:37.997Z,6.00
2022-11-28T01:11:12.352Z,6.00
2022-11-28T01:13:42.751Z,6.00
2022-11-28T01:16:10.383Z,6.00
2022-11-28T01:18:37.818Z,5.90
2022-11-28T01:21:05.781Z,5.90
2022-11-28T01:23:32.523Z,5.90
2022-11-28T01:26:00.527Z,5.90
2022-11-28T01:28:27.161Z,5.90
2022-11-28T01:30:56.561Z,5.90
2022-11-28T01:33:23.217Z,5.90
2022-11-28T01:35:57.741Z,5.90
2022-11-28T01:38:25.064Z,5.90
2022-11-28T01:40:55.955Z,5.90
2022-11-28T01:43:23.923Z,5.90
2022-11-28T01:45:50.822Z,5.90
2022-11-28T01:48:28.922Z,5.90
2022-11-28T01:51:07.080Z,5.90
2022-11-28T01:53:40.406Z,5.90
2022-11-28T01:56:15.373Z,5.90
2022-11-28T01:58:46.470Z,5.90
2022-11-28T02:01:15.760Z,5.90
2022-11-28T02:03:46.296Z,5.80
2022-11-28T02:06:19.024Z,5.80
2022-11-28T02:08:45.968Z,5.80
2022-11-28T02:11:15.493Z,5.80
2022-11-28T02:14:11.378Z,5.80
2022-11-28T02:16:47.008Z,5.80
2022-11-28T02:19:28.638Z,5.70
2022-11-28T02:22:05.703Z,5.70
2022-11-28T02:24:44.458Z,5.70
2022-11-28T02:27:32.089Z,5.70
2022-11-28T02:30:22.069Z,5.70
2022-11-28T02:33:12.733Z,5.60
2022-11-28T02:36:00.567Z,5.60
2022-11-28T02:38:40.304Z,5.60
2022-11-28T02:41:14.632Z,5.60
2022-11-28T02:43:48.094Z,5.60
2022-11-28T02:46:27.704Z,5.50
2022-11-28T02:49:04.290Z,5.50
2022-11-28T02:51:53.062Z,5.60
2022-11-28T02:54:23.982Z,5.50
2022-11-28T02:56:52.358Z,5.50
2022-11-28T02:59:39.291Z,5.50
2022-11-28T03:02:14.965Z,5.50
2022-11-28T03:04:59.954Z,5.50
2022-11-28T03:07:55.680Z,5.50
2022-11-28T03:10:42.149Z,5.50
2022-11-28T03:13:37.132Z,5.50
2022-11-28T03:16:45.005Z,5.50
2022-11-28T03:19:29.938Z,5.50
2022-11-28T03:22:03.553Z,5.50
2022-11-28T03:24:53.333Z,5.50
2022-11-28T03:27:49.334Z,5.40
2022-11-28T03:30:40.202Z,5.40
2022-11-28T03:33:08.173Z,5.40
2022-11-28T03:35:44.164Z,5.40
2022-11-28T03:38:16.720Z,5.40
2022-11-28T03:40:49.090Z,5.30
2022-11-28T03:43:30.985Z,5.30
2022-11-28T03:46:03.882Z,5.30
2022-11-28T03:48:41.320Z,5.30
2022-11-28T03:51:31.007Z,5.20
2022-11-28T03:54:18.884Z,5.20
2022-11-28T03:56:51.376Z,5.20
2022-11-28T03:59:30.919Z,5.20
2022-11-28T04:02:27.814Z,5.20
2022-11-28T04:05:09.550Z,5.20
2022-11-28T04:07:54.185Z,5.20
2022-11-28T04:10:34.564Z,5.20
2022-11-28T04:13:04.251Z,5.20
2022-11-28T04:15:54.743Z,5.20
2022-11-28T04:18:24.281Z,5.20
2022-11-28T04:21:05.564Z,5.20
2022-11-28T04:23:34.300Z,5.10
2022-11-28T04:26:05.775Z,5.20
2022-11-28T04:28:36.182Z,5.10
2022-11-28T04:31:05.719Z,5.10
2022-11-28T04:33:38.185Z,5.10
2022-11-28T04:36:06.402Z,5.10
2022-11-28T04:38:34.351Z,5.00
2022-11-28T04:41:15.095Z,5.00
2022-11-28T04:43:53.129Z,5.00
2022-11-28T04:46:27.120Z,4.90
2022-11-28T04:48:54.396Z,5.00
2022-11-28T04:51:26.753Z,4.90
2022-11-28T04:54:02.858Z,4.90
2022-11-28T04:56:38.494Z,4.90
2022-11-28T04:59:06.431Z,4.90
2022-11-28T05:01:34.759Z,4.90
2022-11-28T05:04:02.498Z,4.80
2022-11-28T05:06:36.912Z,4.80
2022-11-28T05:09:04.681Z,4.80
2022-11-28T05:11:32.313Z,4.80
2022-11-28T05:13:59.033Z,4.80
2022-11-28T05:16:25.785Z,4.80
2022-11-28T05:18:52.541Z,4.80
2022-11-28T05:21:21.439Z,4.80
2022-11-28T05:23:48.478Z,4.70
2022-11-28T05:26:21.097Z,4.80
2022-11-28T05:28:50.817Z,4.70
2022-11-28T05:31:19.958Z,4.70
2022-11-28T05:33:47.048Z,4.70
2022-11-28T05:36:14.543Z,4.70
2022-11-28T05:38:42.075Z,4.70
2022-11-28T05:41:09.147Z,4.70
2022-11-28T05:43:38.187Z,4.70
2022-11-28T05:46:07.350Z,4.70
2022-11-28T05:48:34.079Z,4.70
2022-11-28T05:51:03.277Z,4.60
2022-11-28T05:53:32.455Z,4.70
2022-11-28T05:55:59.654Z,4.70
2022-11-28T05:58:26.294Z,4.60
2022-11-28T06:00:52.910Z,4.60
2022-11-28T06:03:19.591Z,4.60
2022-11-28T06:05:48.792Z,4.60
2022-11-28T06:08:18.167Z,4.60
2022-11-28T06:10:44.798Z,4.60
2022-11-28T06:13:13.673Z,4.60
2022-11-28T06:15:43.609Z,4.60
2022-11-28T06:18:10.368Z,4.50
2022-11-28T06:20:37.006Z,4.50
2022-11-28T06:23:03.606Z,4.50
2022-11-28T06:25:30.305Z,4.50
2022-11-28T06:27:56.953Z,4.50
2022-11-28T06:30:26.291Z,4.50
2022-11-28T06:32:52.975Z,4.60
2022-11-28T06:35:19.631Z,4.50
2022-11-28T06:37:48.516Z,4.50
2022-11-28T06:40:15.367Z,4.60
2022-11-28T06:42:42.147Z,4.60
2022-11-28T06:45:09.509Z,4.60
2022-11-28T06:47:36.269Z,4.60
2022-11-28T06:50:02.999Z,4.70
2022-11-28T06:52:29.645Z,4.70
2022-11-28T06:54:58.544Z,4.60
2022-11-28T06:57:25.248Z,4.60
2022-11-28T06:59:54.761Z,4.60
2022-11-28T07:02:24.475Z,4.60
2022-11-28T07:04:51.507Z,4.60
2022-11-28T07:07:18.304Z,4.60
2022-11-28T07:09:47.483Z,4.60
2022-11-28T07:12:14.468Z,4.60
2022-11-28T07:14:41.270Z,4.60
2022-11-28T07:17:08.208Z,4.60
2022-11-28T07:19:35.110Z,4.60
2022-11-28T07:22:01.852Z,4.60
2022-11-28T07:24:30.089Z,4.60
2022-11-28T07:26:56.736Z,4.70
2022-11-28T07:29:24.634Z,4.70
2022-11-28T07:31:51.472Z,4.70
2022-11-28T07:34:20.357Z,4.70
2022-11-28T07:36:47.039Z,4.70
2022-11-28T07:39:17.418Z,4.70
2022-11-28T07:41:46.768Z,4.70
2022-11-28T07:44:17.849Z,4.80
2022-11-28T07:46:50.135Z,4.80
2022-11-28T07:49:16.822Z,4.80
2022-11-28T07:51:45.612Z,4.80
2022-11-28T07:54:12.299Z,4.90
2022-11-28T07:57:11.889Z,4.90
2022-11-28T07:59:29.110Z,4.90
2022-11-28T08:01:58.284Z,4.90
2022-11-28T08:04:25.112Z,4.90
2022-11-28T08:06:51.963Z,5.00
2022-11-28T08:09:19.357Z,5.00
2022-11-28T08:11:46.113Z,5.00
2022-11-28T08:14:14.972Z,5.00
2022-11-28T08:16:44.972Z,5.00
2022-11-28T08:19:12.060Z,5.00
2022-11-28T08:21:38.952Z,5.00
2022-11-28T08:24:08.026Z,5.10
2022-11-28T08:26:35.962Z,5.10
2022-11-28T08:29:03.621Z,5.00
2022-11-28T08:31:36.460Z,5.00
2022-11-28T08:34:06.623Z,5.00
2022-11-28T08:36:33.768Z,5.10
2022-11-28T08:39:23.827Z,5.10
2022-11-28T08:41:48.322Z,5.10
2022-11-28T08:44:16.176Z,5.10
2022-11-28T08:46:42.820Z,5.10
2022-11-28T08:49:14.193Z,5.10
2022-11-28T08:51:40.957Z,5.10
2022-11-28T08:54:07.788Z,5.10
2022-11-28T08:56:34.666Z,5.20
2022-11-28T08:59:01.468Z,5.10
2022-11-28T09:01:30.938Z,5.20
2022-11-28T09:03:57.692Z,5.20
2022-11-28T09:06:25.033Z,5.20
2022-11-28T09:08:54.530Z,5.10
2022-11-28T09:11:22.839Z,5.20
2022-11-28T09:13:49.785Z,5.20
2022-11-28T09:16:19.165Z,5.20
2022-11-28T09:18:45.947Z,5.20
2022-11-28T09:21:15.065Z,5.20
2022-11-28T09:23:43.891Z,5.20
2022-11-28T09:26:21.482Z,5.20
2022-11-28T09:28:48.607Z,5.20
2022-11-28T09:31:18.971Z,5.30
2022-11-28T09:33:49.314Z,5.30
2022-11-28T09:36:21.371Z,5.30
2022-11-28T09:38:50.904Z,5.30
2022-11-28T09:41:32.099Z,5.40
2022-11-28T09:44:37.137Z,5.40
2022-11-28T09:47:12.147Z,5.50
2022-11-28T09:49:48.632Z,5.50
2022-11-28T09:52:32.979Z,5.50
2022-11-28T09:55:36.471Z,5.60
2022-11-28T09:58:21.936Z,5.60
2022-11-28T10:01:10.605Z,5.70
2022-11-28T10:04:00.270Z,5.60
2022-11-28T10:07:00.872Z,5.60
2022-11-28T10:09:48.662Z,5.60
2022-11-28T10:12:31.963Z,5.60
2022-11-28T10:15:01.787Z,5.60
2022-11-28T10:17:50.235Z,5.60
2022-11-28T10:20:28.339Z,5.60
2022-11-28T10:23:07.159Z,5.70
2022-11-28T10:25:53.690Z,5.70
2022-11-28T10:28:31.688Z,5.70
2022-11-28T10:31:13.394Z,5.70
2022-11-28T10:33:50.094Z,5.70
2022-11-28T10:36:45.191Z,5.80
2022-11-28T10:39:13.181Z,5.80
2022-11-28T10:42:11.977Z,5.80
2022-11-28T10:44:45.101Z,5.90
2022-11-28T10:47:40.227Z,5.90
2022-11-28T10:50:23.686Z,5.90
2022-11-28T10:53:07.143Z,5.90
2022-11-28T10:56:11.261Z,5.90
2022-11-28T10:58:50.215Z,6.00
2022-11-28T11:01:17.375Z,6.10
2022-11-28T11:03:47.713Z,6.10
2022-11-28T11:06:16.541Z,6.20
2022-11-28T11:08:47.626Z,6.20
2022-11-28T11:11:41.089Z,6.40
2022-11-28T11:14:10.556Z,6.40
2022-11-28T11:16:56.838Z,6.50
2022-11-28T11:19:30.694Z,6.60
2022-11-28T11:22:01.659Z,6.70
2022-11-28T11:24:28.586Z,6.80
2022-11-28T11:27:07.591Z,7.00
2022-11-28T11:29:37.996Z,7.00
2022-11-28T11:32:06.980Z,7.10
2022-11-28T11:34:38.559Z,7.10
2022-11-28T11:37:37.963Z,7.20
2022-11-28T11:40:21.550Z,7.20
2022-11-28T11:43:01.481Z,7.20
2022-11-28T11:45:34.135Z,7.30
2022-11-28T11:48:02.083Z,7.40
2022-11-28T11:50:31.467Z,7.40
2022-11-28T11:53:13.978Z,7.40
2022-11-28T11:55:54.766Z,7.40
2022-11-28T11:58:33.021Z,7.50
2022-11-28T12:01:00.460Z,7.50
2022-11-28T12:03:36.035Z,7.50
2022-11-28T12:06:15.923Z,7.60
2022-11-28T12:08:51.442Z,7.60
2022-11-28T12:11:34.870Z,7.70
2022-11-28T12:14:26.441Z,7.70
2022-11-28T12:16:59.170Z,7.70
2022-11-28T12:20:05.287Z,7.80
2022-11-28T12:22:41.619Z,7.80
2022-11-28T12:25:29.986Z,7.80
2022-11-28T12:28:05.736Z,7.80
2022-11-28T12:30:40.385Z,7.90
2022-11-28T12:33:34.166Z,8.00
2022-11-28T12:36:10.954Z,8.00
2022-11-28T12:39:00.551Z,8.00
2022-11-28T12:41:47.934Z,8.00
2022-11-28T12:44:39.306Z,8.10
2022-11-28T12:47:18.265Z,8.10
2022-11-28T12:50:17.718Z,8.10
2022-11-28T12:53:03.588Z,8.10
2022-11-28T12:55:51.329Z,8.00
2022-11-28T12:58:21.032Z,8.00
2022-11-28T13:01:28.943Z,8.00
2022-11-28T13:04:10.502Z,8.00
2022-11-28T13:06:49.118Z,8.00
2022-11-28T13:09:24.122Z,8.00
2022-11-28T13:11:56.611Z,8.00
2022-11-28T13:14:44.554Z,8.00
2022-11-28T13:17:31.819Z,8.00
2022-11-28T13:20:18.079Z,8.10
2022-11-28T13:23:24.182Z,8.10
2022-11-28T13:26:14.113Z,8.10
2022-11-28T13:28:43.688Z,8.20
2022-11-28T13:31:49.118Z,8.20
2022-11-28T13:34:20.391Z,8.20
2022-11-28T13:40:06.757Z,8.20
2022-11-28T13:43:08.218Z,8.20
2022-11-28T13:45:39.331Z,8.20
2022-11-28T13:49:05.944Z,8.20
2022-11-28T13:51:30.845Z,8.20
2022-11-28T13:54:20.265Z,8.20
2022-11-28T13:57:12.701Z,8.10
2022-11-28T13:59:39.655Z,8.20
2022-11-28T14:02:33.129Z,8.20
2022-11-28T14:05:00.137Z,8.20
2022-11-28T14:10:24.358Z,8.30
2022-11-28T14:13:14.993Z,8.30
2022-11-28T14:16:00.772Z,8.30
2022-11-28T14:18:55.610Z,8.30
2022-11-28T14:21:48.512Z,8.30
2022-11-28T14:24:30.081Z,8.40
2022-11-28T14:27:02.404Z,8.40
2022-11-28T14:29:36.980Z,8.40
2022-11-28T14:34:51.916Z,8.40
2022-11-28T14:37:21.406Z,8.40
2022-11-28T14:39:49.444Z,8.30
2022-11-28T14:42:36.717Z,8.30
2022-11-28T14:45:25.524Z,8.30
2022-11-28T14:48:23.441Z,8.30
2022-11-28T14:50:59.034Z,8.20
2022-11-28T14:53:45.125Z,8.20
2022-11-28T14:56:23.591Z,8.20
2022-11-28T14:58:55.019Z,8.20
2022-11-28T15:01:57.352Z,8.20
2022-11-28T15:05:01.514Z,8.20
2022-11-28T15:07:49.707Z,8.20
2022-11-28T15:10:41.889Z,8.20
2022-11-28T15:13:48.177Z,8.20
2022-11-28T15:16:18.753Z,8.20
2022-11-28T15:18:54.072Z,8.20
2022-11-28T15:21:22.645Z,8.20
2022-11-28T15:23:49.951Z,8.10
2022-11-28T15:26:28.625Z,8.10
2022-11-28T15:29:19.100Z,8.00
2022-11-28T15:31:50.431Z,8.00
2022-11-28T15:34:35.585Z,8.00
2022-11-28T15:37:14.981Z,8.00
2022-11-28T15:39:43.040Z,8.00
2022-11-28T15:42:23.797Z,8.00
2022-11-28T15:45:05.724Z,8.00
2022-11-28T15:47:32.554Z,8.00
2022-11-28T15:50:13.228Z,8.00
2022-11-28T15:52:39.898Z,7.90
2022-11-28T15:55:19.936Z,7.90
2022-11-28T15:57:46.619Z,7.90
2022-11-28T16:00:18.736Z,7.90
2022-11-28T16:02:48.658Z,7.90
2022-11-28T16:05:23.665Z,7.90
2022-11-28T16:07:51.626Z,7.90
2022-11-28T16:10:30.906Z,7.90
2022-11-28T16:13:04.429Z,7.90
2022-11-28T16:15:31.685Z,7.90
2022-11-28T16:17:58.618Z,7.90
2022-11-28T16:20:28.113Z,7.90
2022-11-28T16:23:09.994Z,7.90
2022-11-28T16:25:39.378Z,7.90
2022-11-28T16:28:30.584Z,7.90
2022-11-28T16:30:59.821Z,7.90
2022-11-28T16:33:48.011Z,7.90
2022-11-28T16:36:27.086Z,7.90
2022-11-28T16:39:06.022Z,7.90
2022-11-28T16:41:33.138Z,7.80
2022-11-28T16:44:12.337Z,7.80
2022-11-28T16:46:49.788Z,7.80
2022-11-28T16:49:37.217Z,7.80
2022-11-28T16:52:28.132Z,7.80
2022-11-28T16:54:58.435Z,7.80
2022-11-28T16:57:46.418Z,7.80
2022-11-28T17:00:13.326Z,7.80
2022-11-28T17:02:39.999Z,7.80
2022-11-28T17:05:09.197Z,7.80
2022-11-28T17:07:35.917Z,7.90
2022-11-28T17:10:02.694Z,7.90
2022-11-28T17:12:42.120Z,7.80
2022-11-28T17:15:21.914Z,7.80
2022-11-28T17:17:48.979Z,7.80
2022-11-28T17:20:20.794Z,7.90
2022-11-28T17:22:49.846Z,7.80
2022-11-28T17:25:19.152Z,7.80
2022-11-28T17:27:47.968Z,7.80
2022-11-28T17:30:16.262Z,7.90
2022-11-28T17:32:42.937Z,7.90
2022-11-28T17:35:23.202Z,7.80
2022-11-28T17:37:50.075Z,7.90
2022-11-28T17:40:36.658Z,7.80
2022-11-28T17:43:07.368Z,7.80
2022-11-28T17:45:37.578Z,7.80
2022-11-28T17:48:04.268Z,7.80
2022-11-28T17:50:33.075Z,7.80
2022-11-28T17:53:01.862Z,7.80
2022-11-28T17:55:28.526Z,7.80
2022-11-28T17:57:55.272Z,7.70
2022-11-28T18:00:27.300Z,7.70
2022-11-28T18:02:53.892Z,7.70
2022-11-28T18:05:20.556Z,7.70
2022-11-28T18:07:47.603Z,7.70
2022-11-28T18:10:14.505Z,7.70
2022-11-28T18:12:41.446Z,7.70
2022-11-28T18:15:10.453Z,7.70
2022-11-28T18:17:38.109Z,7.70
2022-11-28T18:20:05.696Z,7.70
2022-11-28T18:22:32.409Z,7.70
2022-11-28T18:24:59.619Z,7.70
2022-11-28T18:27:27.675Z,7.70
2022-11-28T18:29:57.151Z,7.70
2022-11-28T18:32:24.153Z,7.70
2022-11-28T18:34:53.108Z,7.70
2022-11-28T18:37:19.970Z,7.70
2022-11-28T18:39:47.125Z,7.70
2022-11-28T18:42:13.967Z,7.70
2022-11-28T18:44:40.885Z,7.70
2022-11-28T18:47:07.665Z,7.70
2022-11-28T18:49:34.327Z,7.70
2022-11-28T18:52:01.266Z,7.70
2022-11-28T18:54:30.902Z,7.70
2022-11-28T18:56:57.556Z,7.70
2022-11-28T18:59:24.378Z,7.70
2022-11-28T19:01:51.377Z,7.70
2022-11-28T19:04:18.093Z,7.70
2022-11-28T19:06:48.489Z,7.70
2022-11-28T19:09:16.749Z,7.70
2022-11-28T19:11:44.288Z,7.70
2022-11-28T19:14:18.027Z,7.70
2022-11-28T19:16:45.881Z,7.70
2022-11-28T19:19:13.147Z,7.70
2022-11-28T19:21:39.811Z,7.70
2022-11-28T19:24:10.507Z,7.70
2022-11-28T19:26:42.317Z,7.70
2022-11-28T19:29:12.950Z,7.70
2022-11-28T19:31:41.397Z,7.70
2022-11-28T19:34:12.723Z,7.70
2022-11-28T19:36:48.467Z,7.70
2022-11-28T19:39:23.494Z,7.70
2022-11-28T19:41:52.146Z,7.70
2022-11-28T19:44:20.853Z,7.70
2022-11-28T19:46:48.095Z,7.70
2022-11-28T19:49:20.091Z,7.70
2022-11-28T19:51:50.980Z,7.70
2022-11-28T19:54:21.851Z,7.70
2022-11-28T19:56:51.597Z,7.70
2022-11-28T19:59:19.278Z,7.70
2022-11-28T20:01:48.895Z,7.70
2022-11-28T20:04:16.288Z,7.70
2022-11-28T20:06:42.963Z,7.70
2022-11-28T20:09:16.558Z,7.70
2022-11-28T20:11:44.422Z,7.70
2022-11-28T20:14:16.777Z,7.70
2022-11-28T20:16:46.659Z,7.70
2022-11-28T20:19:14.974Z,7.70
2022-11-28T20:21:41.854Z,7.70
2022-11-28T20:24:08.634Z,7.70
2022-11-28T20:26:39.627Z,7.70
2022-11-28T20:29:07.996Z,7.70
2022-11-28T20:31:45.208Z,7.70
2022-11-28T20:34:18.972Z,7.70
2022-11-28T20:36:50.154Z,7.70
2022-11-28T20:39:19.162Z,7.60
2022-11-28T20:41:45.870Z,7.60
2022-11-28T20:44:15.197Z,7.70
2022-11-28T20:46:43.986Z,7.60
2022-11-28T20:49:10.952Z,7.60
2022-11-28T20:51:37.808Z,7.60
2022-11-28T20:54:06.032Z,7.60
2022-11-28T20:56:57.859Z,7.60
2022-11-28T20:59:22.981Z,7.60
2022-11-28T21:01:49.850Z,7.60
2022-11-28T21:04:18.192Z,7.60
2022-11-28T21:06:47.359Z,7.50
2022-11-28T21:09:16.111Z,7.50
2022-11-28T21:12:02.354Z,7.60
2022-11-28T21:14:29.531Z,7.60
2022-11-28T21:16:57.428Z,7.50
2022-11-28T21:19:24.367Z,7.50
2022-11-28T21:21:53.235Z,7.50
2022-11-28T21:24:19.968Z,7.50
2022-11-28T21:26:53.105Z,7.50
2022-11-28T21:29:20.448Z,7.50
2022-11-28T21:31:47.227Z,7.50
2022-11-28T21:34:16.355Z,7.40
2022-11-28T21:36:43.346Z,7.50
2022-11-28T21:39:16.396Z,7.50
2022-11-28T21:41:43.374Z,7.50
2022-11-28T21:44:10.120Z,7.50
2022-11-28T21:46:39.298Z,7.50
2022-11-28T21:49:05.973Z,7.50
2022-11-28T21:51:35.429Z,7.50
2022-11-28T21:54:02.818Z,7.50
2022-11-28T21:56:29.526Z,7.50
2022-11-28T21:58:58.313Z,7.50
2022-11-28T22:01:27.407Z,7.50
2022-11-28T22:03:59.033Z,7.50
2022-11-28T22:06:28.904Z,7.50
2022-11-28T22:08:55.634Z,7.50
2022-11-28T22:11:25.029Z,7.50
2022-11-28T22:13:52.843Z,7.50
2022-11-28T22:16:25.041Z,7.60
2022-11-28T22:18:53.818Z,7.50
2022-11-28T22:21:50.604Z,7.60
2022-11-28T22:24:08.841Z,7.50
2022-11-28T22:26:38.250Z,7.60
2022-11-28T22:29:05.004Z,7.60
2022-11-28T22:31:31.993Z,7.60
2022-11-28T22:34:01.152Z,7.60
2022-11-28T22:36:28.211Z,7.60
2022-11-28T22:38:56.953Z,7.60
2022-11-28T22:41:29.615Z,7.60
2022-11-28T22:43:59.481Z,7.60
2022-11-28T22:46:26.642Z,7.60
2022-11-28T22:48:56.037Z,7.60
2022-11-28T22:51:25.235Z,7.60
2022-11-28T22:54:00.610Z,7.60
2022-11-28T22:56:28.708Z,7.50
2022-11-28T22:58:55.979Z,7.60
2022-11-28T23:01:25.353Z,7.60
2022-11-28T23:03:53.282Z,7.50
2022-11-28T23:06:26.148Z,7.50
2022-11-28T23:08:53.535Z,7.60
2022-11-28T23:11:22.777Z,7.60
2022-11-28T23:13:50.466Z,7.60
2022-11-28T23:16:19.423Z,7.60
2022-11-28T23:18:48.211Z,7.60
2022-11-28T23:21:18.994Z,7.60
2022-11-28T23:23:48.663Z,7.60
2022-11-28T23:26:18.753Z,7.60
2022-11-28T23:28:45.623Z,7.60
2022-11-28T23:31:17.469Z,7.60
2022-11-28T23:33:44.760Z,7.60
2022-11-28T23:36:28.420Z,7.60
2022-11-28T23:38:59.300Z,7.60
2022-11-28T23:41:30.074Z,7.60
2022-11-28T23:44:00.313Z,7.60
2022-11-28T23:46:30.199Z,7.60
2022-11-28T23:48:57.121Z,7.60
2022-11-28T23:51:26.128Z,7.60
2022-11-28T23:53:53.491Z,7.60
2022-11-28T23:56:23.224Z,7.60
2022-11-28T23:58:50.835Z,7.60
